Time;durP1;ratioP1;P1;durP2;ratioP2;P2;SDS_P1;SDS_P2;PMS_P1;PMS_P2;Temp;Humidity;BMP_temperature;BMP_pressure;BME280_temperature;BME280_humidity;BME280_pressure;Samples;Min_cycle;Max_cycle;Signal;HPM_P1;HPM_P2
2021/11/12 00:13:34;;;;;;;;;;;20.70;62.50;;;;;;5015845;28;1953;-70
2021/11/12 00:16:02;;;;;;;;;;;20.80;62.70;;;;;;5016430;28;1336;-71
2021/11/12 00:18:28;;;;;;;;;;;20.80;62.70;;;;;;5048255;28;1384;-70
2021/11/12 00:20:54;;;;;;;;;;;20.70;62.60;;;;;;5026149;28;1260;-70
2021/11/12 00:23:20;;;;;;;;;;;20.70;62.70;;;;;;5015826;28;1429;-71
2021/11/12 00:25:47;;;;;;;;;;;20.70;62.70;;;;;;5014499;28;1287;-71
2021/11/12 00:28:14;;;;;;;;;;;20.70;62.70;;;;;;5031000;28;1380;-71
2021/11/12 00:30:55;;;;;;;;;;;20.70;62.80;;;;;;5015653;28;1280;-70
2021/11/12 00:33:42;;;;;;;;;;;20.70;62.70;;;;;;5021601;28;1952;-71
2021/11/12 00:38:44;;;;;;;;;;;20.70;62.80;;;;;;5005487;28;1315;-70
2021/11/12 00:43:56;;;;;;;;;;;20.70;62.80;;;;;;5010275;28;1352;-70
2021/11/12 00:46:33;;;;;;;;;;;20.70;62.80;;;;;;5019744;28;1309;-70
2021/11/12 00:49:03;;;;;;;;;;;20.70;62.90;;;;;;5031527;28;1307;-70
2021/11/12 00:51:38;;;;;;;;;;;20.60;62.80;;;;;;5034551;28;1977;-70
2021/11/12 00:56:29;;;;;;;;;;;20.70;62.90;;;;;;5034856;28;1291;-71
2021/11/12 00:58:55;;;;;;;;;;;20.70;63.00;;;;;;5034140;28;1340;-71
2021/11/12 01:01:21;;;;;;;;;;;20.70;63.00;;;;;;5033830;28;1344;-71
2021/11/12 01:03:47;;;;;;;;;;;20.70;63.00;;;;;;5035372;28;1370;-70
2021/11/12 01:06:12;;;;;;;;;;;20.70;63.00;;;;;;5033610;28;1335;-71
2021/11/12 01:08:38;;;;;;;;;;;20.70;63.00;;;;;;5013563;28;1216;-71
2021/11/12 01:11:04;;;;;;;;;;;20.60;63.00;;;;;;5029592;28;1334;-71
2021/11/12 01:13:30;;;;;;;;;;;20.70;63.10;;;;;;5014840;28;1902;-70
2021/11/12 01:15:56;;;;;;;;;;;20.60;63.00;;;;;;5012803;28;1267;-71
2021/11/12 01:18:21;;;;;;;;;;;20.60;63.00;;;;;;5031275;28;1295;-71
2021/11/12 01:20:47;;;;;;;;;;;20.60;63.00;;;;;;5025613;28;1342;-71
2021/11/12 01:23:12;;;;;;;;;;;20.60;63.00;;;;;;5014485;28;1279;-71
2021/11/12 01:25:39;;;;;;;;;;;20.60;63.10;;;;;;5029978;28;1327;-70
2021/11/12 01:28:04;;;;;;;;;;;20.60;63.10;;;;;;5014632;28;1295;-71
2021/11/12 01:30:30;;;;;;;;;;;20.60;63.10;;;;;;5014747;28;978;-72
2021/11/12 01:32:55;;;;;;;;;;;20.60;63.10;;;;;;5013251;28;1910;-71
2021/11/12 01:35:21;;;;;;;;;;;20.60;63.10;;;;;;5023918;28;1489;-71
2021/11/12 01:37:47;;;;;;;;;;;20.60;63.20;;;;;;5034383;28;1386;-71
2021/11/12 01:40:21;;;;;;;;;;;20.60;63.20;;;;;;5033681;28;1299;-71
2021/11/12 01:42:54;;;;;;;;;;;20.60;63.20;;;;;;5032503;28;1140;-71
2021/11/12 01:45:28;;;;;;;;;;;20.60;63.20;;;;;;5034396;28;1247;-71
2021/11/12 01:48:16;;;;;;;;;;;20.60;63.20;;;;;;5016087;28;1409;-71
2021/11/12 01:50:44;;;;;;;;;;;20.60;63.20;;;;;;5015415;28;1168;-71
2021/11/12 01:53:13;;;;;;;;;;;20.60;63.20;;;;;;5032417;28;1910;-71
2021/11/12 01:55:48;;;;;;;;;;;20.60;63.30;;;;;;5020632;28;1107;-70
2021/11/12 02:00:48;;;;;;;;;;;20.50;63.20;;;;;;5010047;28;1216;-71
2021/11/12 02:03:13;;;;;;;;;;;20.60;63.30;;;;;;5006524;28;1308;-69
2021/11/12 02:05:39;;;;;;;;;;;20.50;63.20;;;;;;5005419;28;1104;-70
2021/11/12 02:08:05;;;;;;;;;;;20.50;63.30;;;;;;5005554;28;1403;-70
2021/11/12 02:10:31;;;;;;;;;;;20.50;63.30;;;;;;5008239;28;1489;-69
2021/11/12 02:13:03;;;;;;;;;;;20.50;63.30;;;;;;5007600;28;1961;-69
2021/11/12 02:15:28;;;;;;;;;;;20.50;63.30;;;;;;5001724;28;1033;-70
2021/11/12 02:17:59;;;;;;;;;;;20.50;63.30;;;;;;5006132;28;1279;-70
2021/11/12 02:20:47;;;;;;;;;;;20.50;63.40;;;;;;5006440;28;1205;-69
2021/11/12 02:23:12;;;;;;;;;;;20.50;63.40;;;;;;5028921;28;1221;-70
2021/11/12 02:25:40;;;;;;;;;;;20.50;63.40;;;;;;5033763;28;1254;-70
2021/11/12 02:28:14;;;;;;;;;;;20.50;63.40;;;;;;5033020;28;1369;-71
2021/11/12 02:30:40;;;;;;;;;;;20.50;63.40;;;;;;5017051;28;1578;-70
2021/11/12 02:33:05;;;;;;;;;;;20.50;63.40;;;;;;5033282;28;1906;-70
2021/11/12 02:35:31;;;;;;;;;;;20.50;63.40;;;;;;5033595;28;1119;-71
2021/11/12 02:37:57;;;;;;;;;;;20.50;63.40;;;;;;5033638;28;1303;-70
2021/11/12 02:40:22;;;;;;;;;;;20.50;63.40;;;;;;5048685;28;1283;-70
2021/11/12 02:42:48;;;;;;;;;;;20.50;63.50;;;;;;5028404;28;1307;-71
2021/11/12 02:45:13;;;;;;;;;;;20.40;63.50;;;;;;5023837;28;1280;-70
2021/11/12 02:47:39;;;;;;;;;;;20.50;63.50;;;;;;5028270;28;1388;-71
2021/11/12 02:50:04;;;;;;;;;;;20.50;63.50;;;;;;5023683;28;1287;-70
2021/11/12 02:52:30;;;;;;;;;;;20.40;63.50;;;;;;5032433;28;1930;-70
2021/11/12 02:54:55;;;;;;;;;;;20.40;63.50;;;;;;5033287;28;1306;-71
2021/11/12 02:57:24;;;;;;;;;;;20.40;63.50;;;;;;5018993;28;1108;-70
2021/11/12 02:59:49;;;;;;;;;;;20.40;63.50;;;;;;5033220;28;1347;-70
2021/11/12 03:02:15;;;;;;;;;;;20.40;63.60;;;;;;5047474;28;1353;-70
2021/11/12 03:04:41;;;;;;;;;;;20.40;63.50;;;;;;5033493;28;1270;-70
2021/11/12 03:07:06;;;;;;;;;;;20.40;63.60;;;;;;5032793;28;1435;-70
2021/11/12 03:09:32;;;;;;;;;;;20.40;63.60;;;;;;5017874;28;1219;-70
2021/11/12 03:11:58;;;;;;;;;;;20.40;63.60;;;;;;5027444;28;1894;-70
2021/11/12 03:14:23;;;;;;;;;;;20.40;63.60;;;;;;5027844;28;1284;-71
2021/11/12 03:16:50;;;;;;;;;;;20.40;63.60;;;;;;5016551;28;1202;-70
2021/11/12 03:19:15;;;;;;;;;;;20.40;63.60;;;;;;5022571;28;1288;-70
2021/11/12 03:21:41;;;;;;;;;;;20.40;63.60;;;;;;5017006;28;1333;-70
2021/11/12 03:24:32;;;;;;;;;;;20.40;63.60;;;;;;5031433;28;1498;-71
2021/11/12 03:30:06;;;;;;;;;;;20.40;63.70;;;;;;5032950;28;1380;-70
2021/11/12 04:18:52;;;;;;;;;;;20.30;63.90;;;;;;5030604;28;1312;-70
2021/11/12 05:10:39;;;;;;;;;;;20.50;63.40;;;;;;5032444;28;946;-71
2021/11/12 05:56:32;;;;;;;;;;;20.70;62.30;;;;;;5015245;28;1155;-70
2021/11/12 05:58:57;;;;;;;;;;;20.70;62.30;;;;;;5028853;28;1320;-70
2021/11/12 06:01:23;;;;;;;;;;;20.70;62.30;;;;;;5033499;28;739;-69
2021/11/12 06:03:48;;;;;;;;;;;20.70;62.30;;;;;;5034119;28;1135;-70
2021/11/12 06:06:14;;;;;;;;;;;20.70;62.20;;;;;;5023828;28;1225;-70
2021/11/12 06:08:40;;;;;;;;;;;20.80;62.30;;;;;;5023693;28;1276;-70
2021/11/12 06:11:05;;;;;;;;;;;20.80;62.30;;;;;;5023406;28;1396;-70
2021/11/12 06:13:31;;;;;;;;;;;20.80;62.20;;;;;;5020941;28;1955;-70
2021/11/12 06:15:56;;;;;;;;;;;20.80;62.20;;;;;;5024007;28;1237;-70
2021/11/12 06:18:21;;;;;;;;;;;20.80;62.20;;;;;;5030876;28;1394;-70
2021/11/12 06:20:47;;;;;;;;;;;20.80;62.20;;;;;;5015739;28;1095;-70
2021/11/12 06:23:12;;;;;;;;;;;20.80;62.10;;;;;;5026458;28;1289;-70
2021/11/12 06:25:38;;;;;;;;;;;20.80;62.10;;;;;;5033178;28;1328;-69
2021/11/12 06:28:03;;;;;;;;;;;20.80;62.10;;;;;;5032656;28;1379;-69
2021/11/12 06:30:29;;;;;;;;;;;20.80;62.10;;;;;;5032141;28;1669;-70
2021/11/12 06:32:54;;;;;;;;;;;20.80;62.10;;;;;;5032614;28;1910;-70
2021/11/12 06:35:20;;;;;;;;;;;20.80;62.10;;;;;;5033638;28;1314;-70
2021/11/12 06:37:45;;;;;;;;;;;20.80;62.10;;;;;;5032301;28;1277;-70
2021/11/12 06:40:17;;;;;;;;;;;20.80;62.10;;;;;;5032055;28;1362;-70
2021/11/12 06:42:58;;;;;;;;;;;20.80;62.00;;;;;;5010774;28;1922;-69
2021/11/12 06:50:33;;;;;;;;;;;20.80;62.00;;;;;;5024618;28;1260;-69
2021/11/12 06:52:59;;;;;;;;;;;20.80;62.00;;;;;;5003379;28;1963;-69
2021/11/12 06:55:24;;;;;;;;;;;20.80;62.00;;;;;;5011529;28;1848;-70
2021/11/12 06:57:50;;;;;;;;;;;20.80;62.00;;;;;;5009790;28;1962;-70
2021/11/12 07:00:16;;;;;;;;;;;20.80;61.50;;;;;;5025321;28;2058;-69
2021/11/12 07:02:42;;;;;;;;;;;20.80;59.40;;;;;;5019620;28;1975;-69
2021/11/12 07:05:08;;;;;;;;;;;20.80;58.70;;;;;;4999118;28;1256;-69
2021/11/12 07:07:34;;;;;;;;;;;20.80;58.80;;;;;;5015708;28;2385;-69
2021/11/12 07:09:59;;;;;;;;;;;20.80;58.60;;;;;;5026134;28;1148;-68
2021/11/12 07:12:25;;;;;;;;;;;20.80;58.80;;;;;;5030841;28;1902;-69
2021/11/12 07:14:50;;;;;;;;;;;20.80;58.80;;;;;;5031410;28;1275;-70
2021/11/12 07:17:16;;;;;;;;;;;20.80;58.80;;;;;;5035704;28;1272;-69
2021/11/12 07:19:41;;;;;;;;;;;20.80;58.90;;;;;;5032428;28;1306;-69
2021/11/12 07:22:07;;;;;;;;;;;20.80;59.00;;;;;;5012922;28;1164;-70
2021/11/12 07:24:33;;;;;;;;;;;20.80;59.20;;;;;;5012644;28;1275;-69
2021/11/12 07:26:58;;;;;;;;;;;20.80;59.40;;;;;;5013159;28;1344;-69
2021/11/12 07:29:26;;;;;;;;;;;20.80;59.50;;;;;;5013028;28;1358;-69
2021/11/12 07:31:51;;;;;;;;;;;20.80;60.30;;;;;;5010859;28;1960;-69
2021/11/12 07:34:18;;;;;;;;;;;20.80;59.70;;;;;;5026272;28;1225;-69
2021/11/12 07:36:50;;;;;;;;;;;20.80;59.80;;;;;;5011005;28;1847;-68
2021/11/12 07:39:24;;;;;;;;;;;20.80;59.90;;;;;;5006336;28;1328;-69
2021/11/12 07:44:37;;;;;;;;;;;20.90;60.10;;;;;;5013903;28;1083;-69
2021/11/12 07:47:11;;;;;;;;;;;21.00;60.00;;;;;;5011744;28;1025;-69
2021/11/12 07:49:37;;;;;;;;;;;21.10;59.90;;;;;;5012141;28;1409;-68
2021/11/12 07:52:03;;;;;;;;;;;21.10;59.80;;;;;;5024857;28;1902;-69
2021/11/12 07:54:28;;;;;;;;;;;21.20;59.70;;;;;;5031056;28;1283;-70
2021/11/12 07:56:54;;;;;;;;;;;21.30;59.60;;;;;;5032335;28;1252;-70
2021/11/12 07:59:19;;;;;;;;;;;21.40;59.40;;;;;;5032001;28;1312;-70
2021/11/12 08:01:45;;;;;;;;;;;21.50;59.30;;;;;;5031017;28;1369;-70
2021/11/12 08:04:10;;;;;;;;;;;21.50;59.10;;;;;;5032388;28;1322;-70
2021/11/12 08:06:36;;;;;;;;;;;21.60;59.00;;;;;;5032513;28;1337;-70
2021/11/12 08:09:05;;;;;;;;;;;21.70;58.90;;;;;;5022039;28;1401;-69
2021/11/12 08:11:45;;;;;;;;;;;21.70;58.70;;;;;;5024274;28;1898;-69
2021/11/12 08:14:13;;;;;;;;;;;21.80;58.60;;;;;;5030921;28;1258;-69
2021/11/12 08:16:58;;;;;;;;;;;21.80;58.50;;;;;;5018768;28;1228;-69
2021/11/12 08:19:33;;;;;;;;;;;21.90;58.40;;;;;;5031067;28;1277;-68
2021/11/12 08:22:15;;;;;;;;;;;21.90;58.30;;;;;;5006692;28;1210;-68
2021/11/12 08:35:15;;;;;;;;;;;22.10;58.10;;;;;;5016029;28;1091;-71
2021/11/12 08:42:50;;;;;;;;;;;22.20;58.00;;;;;;5015619;28;1223;-71
2021/11/12 08:45:24;;;;;;;;;;;22.20;58.00;;;;;;5030141;28;1299;-71
2021/11/12 08:47:53;;;;;;;;;;;22.20;58.00;;;;;;5014106;28;1617;-71
2021/11/12 08:50:22;;;;;;;;;;;22.30;58.00;;;;;;5015845;28;1323;-71
2021/11/12 08:52:48;;;;;;;;;;;22.30;58.00;;;;;;5014539;28;1967;-70
2021/11/12 08:55:14;;;;;;;;;;;22.30;57.90;;;;;;5016047;28;1292;-72
2021/11/12 08:57:41;;;;;;;;;;;22.30;57.90;;;;;;5030782;28;1309;-71
2021/11/12 09:00:07;;;;;;;;;;;22.30;57.90;;;;;;5015611;28;1281;-71
2021/11/12 09:02:32;;;;;;;;;;;22.40;57.90;;;;;;5029790;28;1356;-71
2021/11/12 09:04:58;;;;;;;;;;;22.40;57.90;;;;;;5015536;28;1193;-71
2021/11/12 09:07:24;;;;;;;;;;;22.40;57.90;;;;;;5015412;28;1331;-71
2021/11/12 09:09:51;;;;;;;;;;;22.40;57.90;;;;;;5026369;28;1209;-70
2021/11/12 09:12:17;;;;;;;;;;;22.40;57.90;;;;;;5014623;28;1899;-70
2021/11/12 09:14:45;;;;;;;;;;;22.40;57.80;;;;;;5030396;28;1271;-72
2021/11/12 09:17:11;;;;;;;;;;;22.40;57.80;;;;;;5001175;28;1350;-71
2021/11/12 09:19:44;;;;;;;;;;;22.40;57.80;;;;;;5014828;28;1240;-71
2021/11/12 09:22:10;;;;;;;;;;;22.50;57.90;;;;;;5015021;28;1171;-71
2021/11/12 09:24:36;;;;;;;;;;;22.50;57.90;;;;;;5030641;28;1466;-71
2021/11/12 09:27:01;;;;;;;;;;;22.40;57.80;;;;;;5014927;28;1256;-71
2021/11/12 09:29:27;;;;;;;;;;;22.50;57.90;;;;;;5030566;28;1625;-72
2021/11/12 09:31:52;;;;;;;;;;;22.40;57.80;;;;;;5021400;28;1907;-72
2021/11/12 09:34:18;;;;;;;;;;;22.40;57.80;;;;;;5034691;28;1699;-72
2021/11/12 09:36:43;;;;;;;;;;;22.40;57.80;;;;;;5034058;28;1690;-72
2021/11/12 09:39:08;;;;;;;;;;;22.40;57.90;;;;;;5034546;28;1666;-71
2021/11/12 09:41:34;;;;;;;;;;;22.40;57.90;;;;;;5032697;28;1463;-71
2021/11/12 09:44:02;;;;;;;;;;;22.40;58.00;;;;;;5034691;28;1643;-72
2021/11/12 09:46:28;;;;;;;;;;;22.40;58.00;;;;;;5033190;28;1397;-72
2021/11/12 09:48:54;;;;;;;;;;;22.40;58.00;;;;;;5033258;28;1319;-72
2021/11/12 09:51:19;;;;;;;;;;;22.30;58.00;;;;;;5032873;28;1662;-72
2021/11/12 09:53:44;;;;;;;;;;;22.40;58.00;;;;;;5034492;28;1918;-72
2021/11/12 09:56:11;;;;;;;;;;;22.30;58.00;;;;;;5034275;28;1436;-70
2021/11/12 09:58:37;;;;;;;;;;;22.30;58.00;;;;;;5033895;28;1337;-70
2021/11/12 10:01:04;;;;;;;;;;;22.30;58.00;;;;;;5033425;28;1506;-68
2021/11/12 10:03:34;;;;;;;;;;;22.40;58.10;;;;;;5016127;28;2133;-72
2021/11/12 10:06:00;;;;;;;;;;;22.40;58.10;;;;;;5011249;28;1307;-72
2021/11/12 10:08:26;;;;;;;;;;;22.40;58.10;;;;;;5024649;28;1473;-72
2021/11/12 10:10:53;;;;;;;;;;;22.40;58.10;;;;;;5029785;28;1626;-70
2021/11/12 10:13:24;;;;;;;;;;;22.40;58.10;;;;;;5014562;28;1894;-73
2021/11/12 10:15:51;;;;;;;;;;;22.40;58.10;;;;;;5014360;28;902;-72
2021/11/12 10:18:17;;;;;;;;;;;22.40;58.10;;;;;;5042183;28;1658;-72
2021/11/12 10:20:55;;;;;;;;;;;22.40;58.10;;;;;;5029744;28;1386;-72
2021/11/12 10:23:21;;;;;;;;;;;22.40;58.10;;;;;;5011638;28;1599;-72
2021/11/12 10:25:55;;;;;;;;;;;22.40;58.10;;;;;;5013421;28;1579;-72
2021/11/12 10:28:37;;;;;;;;;;;22.40;58.20;;;;;;5013138;28;1535;-72
2021/11/12 10:31:10;;;;;;;;;;;22.40;58.20;;;;;;5012341;28;1319;-71
2021/11/12 10:33:36;;;;;;;;;;;22.30;58.20;;;;;;5013593;28;1961;-74
2021/11/12 10:36:01;;;;;;;;;;;22.30;58.20;;;;;;5014572;28;1080;-73
2021/11/12 10:38:33;;;;;;;;;;;22.30;58.30;;;;;;5023225;28;1291;-72
2021/11/12 10:40:58;;;;;;;;;;;22.30;59.00;;;;;;5027576;28;1697;-70
2021/11/12 10:43:24;;;;;;;;;;;22.20;58.40;;;;;;5012572;28;1338;-70
2021/11/12 10:45:50;;;;;;;;;;;22.20;58.40;;;;;;5012876;28;1155;-69
2021/11/12 10:48:16;;;;;;;;;;;22.20;58.50;;;;;;5002856;28;1304;-70
2021/11/12 10:50:42;;;;;;;;;;;22.20;58.50;;;;;;5004512;28;1481;-70
2021/11/12 10:53:08;;;;;;;;;;;22.20;58.60;;;;;;5005880;28;1906;-70
2021/11/12 10:55:35;;;;;;;;;;;22.20;58.60;;;;;;5006591;28;1457;-70
2021/11/12 10:58:02;;;;;;;;;;;22.10;58.60;;;;;;5000604;28;1395;-70
2021/11/12 11:00:28;;;;;;;;;;;22.10;58.70;;;;;;5007738;28;1157;-70
2021/11/12 11:02:55;;;;;;;;;;;22.10;58.70;;;;;;5011729;28;1656;-71
2021/11/12 11:05:24;;;;;;;;;;;22.10;58.80;;;;;;5027528;28;1849;-69
2021/11/12 11:07:51;;;;;;;;;;;22.10;58.80;;;;;;5011981;28;1427;-71
2021/11/12 11:10:36;;;;;;;;;;;22.10;58.80;;;;;;5008173;28;1691;-71
2021/11/12 11:13:09;;;;;;;;;;;22.10;58.80;;;;;;5011826;28;1956;-72
2021/11/12 11:15:36;;;;;;;;;;;22.10;58.90;;;;;;5013113;28;1730;-67
2021/11/12 11:18:07;;;;;;;;;;;22.10;58.90;;;;;;5007642;28;1748;-68
2021/11/12 11:20:33;;;;;;;;;;;22.10;58.90;;;;;;5006145;28;1373;-72
2021/11/12 11:23:00;;;;;;;;;;;22.10;58.90;;;;;;5015564;28;1283;-72
2021/11/12 11:25:27;;;;;;;;;;;22.10;58.80;;;;;;5026835;28;1281;-72
2021/11/12 11:27:53;;;;;;;;;;;22.10;58.80;;;;;;5006927;28;1285;-69
2021/11/12 11:30:18;;;;;;;;;;;22.10;58.80;;;;;;5031516;28;1316;-69
2021/11/12 11:32:45;;;;;;;;;;;22.20;58.80;;;;;;5029486;28;1967;-71
2021/11/12 11:35:11;;;;;;;;;;;22.10;58.80;;;;;;5009440;28;1174;-72
2021/11/12 11:37:36;;;;;;;;;;;22.20;59.40;;;;;;4997322;28;1113;-72
2021/11/12 11:40:02;;;;;;;;;;;22.20;58.80;;;;;;5019124;28;1232;-72
2021/11/12 11:42:27;;;;;;;;;;;22.20;58.70;;;;;;5015420;28;1051;-71
2021/11/12 11:44:53;;;;;;;;;;;22.20;58.60;;;;;;5005429;28;1061;-71
2021/11/12 11:47:21;;;;;;;;;;;22.30;58.60;;;;;;5014957;28;1033;-72
2021/11/12 11:49:48;;;;;;;;;;;22.30;58.60;;;;;;4999732;28;1312;-71
2021/11/12 11:52:14;;;;;;;;;;;22.30;58.60;;;;;;4998721;28;1910;-71
2021/11/12 11:54:44;;;;;;;;;;;22.30;58.60;;;;;;5021789;28;1158;-71
2021/11/12 11:57:13;;;;;;;;;;;22.30;58.60;;;;;;4997014;28;1054;-71
2021/11/12 11:59:40;;;;;;;;;;;22.30;58.70;;;;;;5001773;28;1182;-73
2021/11/12 12:02:13;;;;;;;;;;;22.30;58.70;;;;;;5008112;28;1096;-71
2021/11/12 12:04:45;;;;;;;;;;;22.20;58.60;;;;;;5014610;28;1218;-73
2021/11/12 12:07:16;;;;;;;;;;;22.20;58.60;;;;;;5012196;28;1172;-74
2021/11/12 12:09:48;;;;;;;;;;;22.20;58.70;;;;;;5011281;28;1312;-72
2021/11/12 12:12:34;;;;;;;;;;;22.20;58.70;;;;;;5010750;28;1943;-72
2021/11/12 12:15:05;;;;;;;;;;;22.20;58.70;;;;;;5020773;28;1308;-73
2021/11/12 12:17:37;;;;;;;;;;;22.20;58.70;;;;;;5016094;28;824;-70
2021/11/12 12:20:10;;;;;;;;;;;22.30;58.70;;;;;;5015165;28;1268;-71
2021/11/12 12:31:00;;;;;;;;;;;22.20;58.70;;;;;;5007311;28;1220;-70
2021/11/12 12:36:42;;;;;;;;;;;22.20;58.70;;;;;;5012786;28;957;-75
2021/11/12 13:19:36;;;;;;;;;;;22.30;58.70;;;;;;5030524;28;1372;-72
2021/11/12 13:21:44;;;;;;;;;;;22.30;58.80;;;;;;5020631;28;1562;-72
2021/11/12 13:24:31;;;;;;;;;;;22.20;58.70;;;;;;5015199;28;1341;-71
2021/11/12 13:26:59;;;;;;;;;;;22.30;58.80;;;;;;5015320;28;1149;-72
2021/11/12 13:29:25;;;;;;;;;;;22.20;58.80;;;;;;5015106;28;1318;-72
2021/11/12 13:31:57;;;;;;;;;;;22.20;58.80;;;;;;5014413;28;1989;-72
2021/11/12 13:34:24;;;;;;;;;;;22.20;58.80;;;;;;5014852;28;1313;-72
2021/11/12 13:36:50;;;;;;;;;;;22.20;58.90;;;;;;5014818;28;1057;-72
2021/11/12 13:39:19;;;;;;;;;;;22.20;58.90;;;;;;5014684;28;1273;-72
2021/11/12 13:41:44;;;;;;;;;;;22.20;58.90;;;;;;5014377;28;1327;-73
2021/11/12 13:44:10;;;;;;;;;;;22.20;59.00;;;;;;5014153;28;1278;-71
2021/11/12 13:46:48;;;;;;;;;;;22.20;59.00;;;;;;5029597;28;918;-68
2021/11/12 13:49:33;;;;;;;;;;;22.20;59.00;;;;;;5014507;28;1302;-71
2021/11/12 13:52:00;;;;;;;;;;;22.10;59.00;;;;;;5014014;28;1898;-70
2021/11/12 13:54:25;;;;;;;;;;;22.20;59.00;;;;;;5013679;28;1396;-71
2021/11/12 13:56:51;;;;;;;;;;;22.10;59.10;;;;;;5029894;28;1080;-71
2021/11/12 13:59:16;;;;;;;;;;;22.10;59.10;;;;;;5014429;28;1326;-70
2021/11/12 14:01:42;;;;;;;;;;;22.10;59.20;;;;;;5013517;28;1257;-70
2021/11/12 14:04:25;;;;;;;;;;;22.10;59.20;;;;;;5014163;28;1312;-70
2021/11/12 14:06:52;;;;;;;;;;;22.10;59.20;;;;;;5014066;28;1355;-69
2021/11/12 14:09:19;;;;;;;;;;;22.10;59.30;;;;;;5018770;28;1304;-70
2021/11/12 14:11:45;;;;;;;;;;;22.00;59.30;;;;;;5032259;28;1959;-70
2021/11/12 14:14:13;;;;;;;;;;;22.00;59.30;;;;;;5033853;28;1103;-70
2021/11/12 14:16:53;;;;;;;;;;;22.00;59.30;;;;;;5016719;28;1153;-71
2021/11/12 14:35:02;;;;;;;;;;;21.90;59.60;;;;;;5014061;28;1407;-72
2021/11/12 14:37:48;;;;;;;;;;;21.90;59.60;;;;;;5027716;28;1277;-70
2021/11/12 14:40:19;;;;;;;;;;;21.90;59.60;;;;;;5038666;23;1784;-68
2021/11/12 14:43:15;;;;;;;;;;;21.90;59.60;;;;;;5047762;28;1217;-68
2021/11/12 14:45:43;;;;;;;;;;;21.90;59.60;;;;;;5033057;28;1087;-68
2021/11/12 14:48:17;;;;;;;;;;;21.90;59.60;;;;;;5024287;28;1253;-69
2021/11/12 14:53:37;;;;;;;;;;;21.90;59.60;;;;;;5011628;28;1906;-69
2021/11/12 14:58:31;;;;;;;;;;;21.90;59.60;;;;;;5012363;28;1140;-69
2021/11/12 15:01:02;;;;;;;;;;;21.90;59.60;;;;;;5011045;28;1406;-69
2021/11/12 15:03:28;;;;;;;;;;;21.90;59.70;;;;;;5012105;28;1053;-69
2021/11/12 15:05:53;;;;;;;;;;;21.90;59.60;;;;;;5013369;28;1241;-69
2021/11/12 15:08:21;;;;;;;;;;;21.90;59.60;;;;;;5013070;28;1266;-69
2021/11/12 15:10:47;;;;;;;;;;;21.90;59.70;;;;;;5012057;28;1277;-69
2021/11/12 15:13:14;;;;;;;;;;;21.80;59.60;;;;;;5013101;28;1926;-69
2021/11/12 15:15:40;;;;;;;;;;;21.90;59.70;;;;;;5012209;28;1095;-69
2021/11/12 15:18:07;;;;;;;;;;;21.80;59.70;;;;;;5013096;28;1060;-69
2021/11/12 15:20:33;;;;;;;;;;;21.80;59.70;;;;;;5006711;28;1303;-69
2021/11/12 15:25:40;;;;;;;;;;;21.80;59.70;;;;;;5012812;28;1292;-69
2021/11/12 15:31:00;;;;;;;;;;;21.80;59.70;;;;;;5012309;28;1262;-69
2021/11/12 15:33:25;;;;;;;;;;;21.80;59.70;;;;;;5011914;28;1918;-69
2021/11/12 15:35:52;;;;;;;;;;;21.80;59.70;;;;;;5012046;28;1151;-69
2021/11/12 15:40:53;;;;;;;;;;;21.80;59.80;;;;;;5012441;28;1330;-69
2021/11/12 15:43:23;;;;;;;;;;;21.80;59.80;;;;;;5011523;28;1201;-69
2021/11/12 15:48:16;;;;;;;;;;;21.80;59.80;;;;;;5012798;28;1092;-69
2021/11/12 15:58:54;;;;;;;;;;;21.80;59.90;;;;;;5011724;28;1321;-69
2021/11/12 16:04:08;;;;;;;;;;;21.70;59.80;;;;;;5012719;28;1383;-69
2021/11/12 16:06:48;;;;;;;;;;;21.70;59.80;;;;;;5012096;28;1357;-69
2021/11/12 16:12:09;;;;;;;;;;;21.70;59.90;;;;;;5011560;28;1291;-69
2021/11/12 16:14:41;;;;;;;;;;;21.70;59.90;;;;;;5012577;28;1113;-69
2021/11/12 16:22:30;;;;;;;;;;;21.70;60.00;;;;;;5007448;28;1343;-69
2021/11/12 16:25:16;;;;;;;;;;;21.70;60.00;;;;;;5002921;28;1958;-69
2021/11/12 16:27:50;;;;;;;;;;;21.70;60.00;;;;;;5007513;28;1151;-69
2021/11/12 16:30:17;;;;;;;;;;;21.70;60.00;;;;;;5005482;28;1397;-70
2021/11/12 16:32:51;;;;;;;;;;;21.70;60.00;;;;;;5010316;28;1902;-70
2021/11/12 16:35:20;;;;;;;;;;;21.70;60.00;;;;;;5012535;28;1302;-69
2021/11/12 16:37:48;;;;;;;;;;;21.70;60.00;;;;;;5010811;28;1252;-70
2021/11/12 16:40:50;;;;;;;;;;;21.70;60.10;;;;;;5011905;28;1299;-69
2021/11/12 16:45:49;;;;;;;;;;;21.60;60.00;;;;;;5012485;28;1091;-69
2021/11/12 16:48:22;;;;;;;;;;;21.70;60.10;;;;;;5015740;28;1250;-69
2021/11/12 16:53:55;;;;;;;;;;;21.60;60.00;;;;;;5014757;28;1964;-70
2021/11/12 16:56:51;;;;;;;;;;;21.60;60.00;;;;;;5015938;28;1300;-69
2021/11/12 16:59:26;;;;;;;;;;;21.60;60.10;;;;;;5014518;28;1273;-69
2021/11/12 17:07:07;;;;;;;;;;;21.60;60.10;;;;;;5015616;28;1155;-69
2021/11/12 17:47:17;;;;;;;;;;;21.60;60.30;;;;;;5013846;28;1328;-69
2021/11/12 18:13:50;;;;;;;;;;;21.50;60.30;;;;;;5014102;28;1954;-70
2021/11/12 21:46:31;;;;;;;;;;;21.40;60.40;;;;;;5013357;28;1409;-70
2021/11/12 21:49:01;;;;;;;;;;;21.40;60.30;;;;;;5013418;28;1374;-70
2021/11/12 21:51:31;;;;;;;;;;;21.40;60.40;;;;;;5013228;28;1526;-69
2021/11/12 21:53:57;;;;;;;;;;;21.40;60.40;;;;;;5010421;28;1910;-70
2021/11/12 21:56:23;;;;;;;;;;;21.40;60.30;;;;;;5014425;28;1250;-70
2021/11/12 21:58:48;;;;;;;;;;;21.40;60.30;;;;;;5013557;28;1329;-70
2021/11/12 22:01:15;;;;;;;;;;;21.40;60.30;;;;;;5014429;28;1334;-70
2021/11/12 22:03:40;;;;;;;;;;;21.40;60.30;;;;;;5014588;28;1360;-69
2021/11/12 22:06:06;;;;;;;;;;;21.40;60.40;;;;;;5013420;28;1364;-69
2021/11/12 22:08:31;;;;;;;;;;;21.40;60.30;;;;;;5014165;28;1272;-70
2021/11/12 22:10:57;;;;;;;;;;;21.40;60.30;;;;;;5015076;28;1259;-68
2021/11/12 22:13:22;;;;;;;;;;;21.40;60.30;;;;;;5011756;28;1971;-68
2021/11/12 22:15:48;;;;;;;;;;;21.40;60.30;;;;;;5014188;28;1764;-68
2021/11/12 22:18:13;;;;;;;;;;;21.40;60.40;;;;;;5014473;28;1272;-68
2021/11/12 22:20:39;;;;;;;;;;;21.40;60.40;;;;;;5007002;28;1343;-68
2021/11/12 22:23:04;;;;;;;;;;;21.40;60.40;;;;;;5007413;28;1131;-68
2021/11/12 22:25:30;;;;;;;;;;;21.40;60.50;;;;;;5013314;28;1073;-68
2021/11/12 22:27:55;;;;;;;;;;;21.40;60.50;;;;;;5013986;28;1374;-68
2021/11/12 22:30:20;;;;;;;;;;;21.40;60.60;;;;;;5013528;28;1217;-68
2021/11/12 22:32:46;;;;;;;;;;;21.40;60.60;;;;;;5008608;28;1886;-68
2021/11/12 22:35:11;;;;;;;;;;;21.40;60.60;;;;;;5014266;28;1153;-68
2021/11/12 22:37:37;;;;;;;;;;;21.30;60.60;;;;;;5013706;28;1331;-68
2021/11/12 22:40:03;;;;;;;;;;;21.30;60.60;;;;;;5013902;28;1318;-68
2021/11/12 22:42:29;;;;;;;;;;;21.30;60.70;;;;;;5013028;28;1294;-68
2021/11/12 22:44:55;;;;;;;;;;;21.30;60.70;;;;;;5012388;28;1304;-68
2021/11/12 22:47:20;;;;;;;;;;;21.30;60.80;;;;;;5012749;28;1299;-69
2021/11/12 22:49:46;;;;;;;;;;;21.30;60.80;;;;;;5013771;28;1294;-69
2021/11/12 22:52:11;;;;;;;;;;;21.30;60.90;;;;;;5012718;28;1910;-68
2021/11/12 22:54:36;;;;;;;;;;;21.30;60.90;;;;;;5013645;28;1069;-68
2021/11/12 22:57:02;;;;;;;;;;;21.20;60.90;;;;;;5012819;28;1302;-68
2021/11/12 22:59:27;;;;;;;;;;;21.20;60.90;;;;;;5012922;28;1263;-68
2021/11/12 23:01:53;;;;;;;;;;;21.20;61.00;;;;;;5012684;28;1256;-68
2021/11/12 23:04:18;;;;;;;;;;;21.20;61.00;;;;;;5013566;28;1299;-68
2021/11/12 23:06:44;;;;;;;;;;;21.20;61.00;;;;;;5012922;28;1292;-68
2021/11/12 23:09:10;;;;;;;;;;;21.20;61.10;;;;;;5013307;28;1368;-68
2021/11/12 23:11:36;;;;;;;;;;;21.20;61.10;;;;;;5012582;28;1100;-69
2021/11/12 23:14:01;;;;;;;;;;;21.20;61.20;;;;;;5013051;28;1966;-69
2021/11/12 23:16:26;;;;;;;;;;;21.20;61.20;;;;;;5013028;28;1233;-69
2021/11/12 23:18:52;;;;;;;;;;;21.20;61.30;;;;;;5007106;28;1371;-69
2021/11/12 23:21:17;;;;;;;;;;;21.20;61.30;;;;;;5009584;28;1081;-69
2021/11/12 23:23:46;;;;;;;;;;;21.10;61.30;;;;;;5013359;28;1314;-68
2021/11/12 23:26:12;;;;;;;;;;;21.10;61.30;;;;;;5011575;28;1321;-68
2021/11/12 23:28:37;;;;;;;;;;;21.10;61.30;;;;;;5012794;28;1286;-69
2021/11/12 23:31:03;;;;;;;;;;;21.10;61.30;;;;;;5012302;28;1284;-69
2021/11/12 23:33:28;;;;;;;;;;;21.10;61.40;;;;;;5008486;28;1955;-69
2021/11/12 23:35:53;;;;;;;;;;;21.10;61.40;;;;;;5012367;28;1345;-69
2021/11/12 23:38:19;;;;;;;;;;;21.10;61.40;;;;;;5012863;28;1274;-69
2021/11/12 23:40:44;;;;;;;;;;;21.10;61.50;;;;;;5011113;28;1251;-68
2021/11/12 23:43:10;;;;;;;;;;;21.10;61.50;;;;;;5012117;28;1406;-69
2021/11/12 23:45:35;;;;;;;;;;;21.10;61.50;;;;;;5013239;28;1329;-68
2021/11/12 23:48:01;;;;;;;;;;;21.10;61.60;;;;;;5012407;28;1448;-68
2021/11/12 23:50:26;;;;;;;;;;;21.00;61.50;;;;;;5012119;28;1372;-68
2021/11/12 23:52:52;;;;;;;;;;;21.00;61.60;;;;;;5011918;28;1906;-69
2021/11/12 23:55:17;;;;;;;;;;;21.00;61.60;;;;;;5012290;28;1276;-69
2021/11/12 23:57:43;;;;;;;;;;;21.00;61.60;;;;;;5012644;28;1060;-68
